Big Rock, Tennessee
Current Conditions -  °F | °C
As of 8:58 PM on Monday 20 Oct 2014 (Local Time) from KHOP Reporting Station
Clear Clear  
Wind Chill: 58°   Ceiling: Unl
Heat Index: 58°   Visibility: 10mi
Dew Point: 54°   Wind: 3mph
Humidity: 88%   Direction: 210°SSW
Pressure: 29.99"   Gusts: NA
Location:  36.58°N, 87.76°W
Report Text: KHOP 210158Z AUTO 21003KT 10SM CLR 14/12 A2999 RMK AO2 SLP157 T01430124
Loading
Personal Weather Stations






























Interactive Weather Map
Tropical Storm Tracking
New forecast layout! Learn more

10-Day Weather Forecast

Advertisements
Track Severe Weather on mobile